KXNA/XNA METAR and TAF weather

Enter ICAO airport designator
Station Type Date Time Source
KXNA METAR 2022/06/27 17:53 UTC NOAA

KXNA 271753Z 12006G15KT 10SM CLR 26/09 A3032 RMK AO2 SLP253 T02610094 10272 20200 58005


Station Type Date Time Source
KXNA Decoded METAR 2022/06/27 17:53 UTC NOAA

NORTHWEST ARKANSAS REGIONAL, AR, United States (KXNA) 36-17N 94-18W
Jun 27, 2022 - 01:53 PM EDT / 2022.06.27 1753 UTC
Wind: from the ESE (120 degrees) at 7 MPH (6 KT) gusting to 17 MPH (15 KT):0
Visibility: 10 mile(s):0
Sky conditions: clear
Temperature: 79.0 F (26.1 C)
Dew Point: 48.9 F (9.4 C)
Relative Humidity: 34%
Pressure (altimeter): 30.32 in. Hg (1026 hPa)
Pressure tendency: 0.01 inches (0.5 hPa) lower than three hours ago
ob: KXNA 271753Z 12006G15KT 10SM CLR 26/09 A3032 RMK AO2 SLP253 T02610094 10272 20200 58005
cycle: 18

Station Type Date Time Source
KXNA TAF 2022/06/27 18:24 UTC NOAA

TAF KXNA 271723Z 2718/2818 06009KT P6SM SCT100
FM281500 14006KT P6SM SCT250

Example: see airport list